sensor_id;sensor_type;location;lat;lon;timestamp;temperature;humidity
7738;DHT22;29398;45.328;5.558;2023-05-31T00:00:12;18.60;96.60
7738;DHT22;29398;45.328;5.558;2023-05-31T00:01:16;18.60;96.60
7738;DHT22;29398;45.328;5.558;2023-05-31T00:02:17;18.60;96.60
7738;DHT22;29398;45.328;5.558;2023-05-31T00:03:19;18.60;96.70
7738;DHT22;29398;45.328;5.558;2023-05-31T00:04:20;18.60;97.00
7738;DHT22;29398;45.328;5.558;2023-05-31T00:05:22;18.60;96.40
7738;DHT22;29398;45.328;5.558;2023-05-31T00:06:23;18.60;96.90
7738;DHT22;29398;45.328;5.558;2023-05-31T00:07:25;18.60;96.90
7738;DHT22;29398;45.328;5.558;2023-05-31T00:08:26;18.50;96.90
7738;DHT22;29398;45.328;5.558;2023-05-31T00:09:28;18.60;96.50
7738;DHT22;29398;45.328;5.558;2023-05-31T00:10:29;18.50;97.60
7738;DHT22;29398;45.328;5.558;2023-05-31T00:11:31;18.50;97.70
7738;DHT22;29398;45.328;5.558;2023-05-31T00:12:32;18.50;97.80
7738;DHT22;29398;45.328;5.558;2023-05-31T00:13:35;18.50;97.60
7738;DHT22;29398;45.328;5.558;2023-05-31T00:14:36;18.50;97.40
7738;DHT22;29398;45.328;5.558;2023-05-31T00:15:38;18.40;97.40
7738;DHT22;29398;45.328;5.558;2023-05-31T00:16:40;18.40;97.30
7738;DHT22;29398;45.328;5.558;2023-05-31T00:17:42;18.40;97.30
7738;DHT22;29398;45.328;5.558;2023-05-31T00:18:43;18.40;97.30
7738;DHT22;29398;45.328;5.558;2023-05-31T00:19:46;18.40;97.20
7738;DHT22;29398;45.328;5.558;2023-05-31T00:20:47;18.40;97.70
7738;DHT22;29398;45.328;5.558;2023-05-31T00:21:49;18.30;97.40
7738;DHT22;29398;45.328;5.558;2023-05-31T00:22:50;18.30;97.20
7738;DHT22;29398;45.328;5.558;2023-05-31T00:23:52;18.30;97.20
7738;DHT22;29398;45.328;5.558;2023-05-31T00:24:53;18.10;95.70
7738;DHT22;29398;45.328;5.558;2023-05-31T00:25:55;18.20;96.10
7738;DHT22;29398;45.328;5.558;2023-05-31T00:26:56;18.10;96.10
7738;DHT22;29398;45.328;5.558;2023-05-31T00:27:59;18.10;96.00
7738;DHT22;29398;45.328;5.558;2023-05-31T00:29:00;18.10;96.30
7738;DHT22;29398;45.328;5.558;2023-05-31T00:30:03;18.10;96.40
7738;DHT22;29398;45.328;5.558;2023-05-31T00:31:04;18.10;96.40
7738;DHT22;29398;45.328;5.558;2023-05-31T00:32:08;18.10;96.40
7738;DHT22;29398;45.328;5.558;2023-05-31T00:33:11;18.10;96.40
7738;DHT22;29398;45.328;5.558;2023-05-31T00:34:12;18.10;96.50
7738;DHT22;29398;45.328;5.558;2023-05-31T00:35:14;18.10;96.40
7738;DHT22;29398;45.328;5.558;2023-05-31T00:36:17;18.10;96.30
7738;DHT22;29398;45.328;5.558;2023-05-31T00:37:20;18.10;96.30
7738;DHT22;29398;45.328;5.558;2023-05-31T00:38:21;18.10;96.40
7738;DHT22;29398;45.328;5.558;2023-05-31T00:39:23;18.10;96.50
7738;DHT22;29398;45.328;5.558;2023-05-31T00:40:24;18.10;96.60
7738;DHT22;29398;45.328;5.558;2023-05-31T00:41:27;18.10;96.50
7738;DHT22;29398;45.328;5.558;2023-05-31T00:42:28;18.10;96.40
7738;DHT22;29398;45.328;5.558;2023-05-31T00:43:30;18.10;96.40
7738;DHT22;29398;45.328;5.558;2023-05-31T00:44:31;18.10;96.40
7738;DHT22;29398;45.328;5.558;2023-05-31T00:45:34;18.10;96.30
7738;DHT22;29398;45.328;5.558;2023-05-31T00:46:37;18.10;96.30
7738;DHT22;29398;45.328;5.558;2023-05-31T00:47:41;18.00;96.60
7738;DHT22;29398;45.328;5.558;2023-05-31T00:48:43;18.00;96.60
7738;DHT22;29398;45.328;5.558;2023-05-31T00:49:45;18.00;96.50
7738;DHT22;29398;45.328;5.558;2023-05-31T00:50:48;18.00;96.80
7738;DHT22;29398;45.328;5.558;2023-05-31T00:51:50;18.00;96.70
7738;DHT22;29398;45.328;5.558;2023-05-31T00:52:54;17.90;96.80
7738;DHT22;29398;45.328;5.558;2023-05-31T00:53:57;17.90;96.70
7738;DHT22;29398;45.328;5.558;2023-05-31T00:55:00;17.90;96.90
7738;DHT22;29398;45.328;5.558;2023-05-31T00:56:02;17.90;97.00
7738;DHT22;29398;45.328;5.558;2023-05-31T00:57:05;17.90;96.90
7738;DHT22;29398;45.328;5.558;2023-05-31T00:58:08;17.90;97.10
7738;DHT22;29398;45.328;5.558;2023-05-31T01:00:14;17.90;96.90
7738;DHT22;29398;45.328;5.558;2023-05-31T01:01:16;17.80;97.20
7738;DHT22;29398;45.328;5.558;2023-05-31T01:02:19;17.80;97.10
7738;DHT22;29398;45.328;5.558;2023-05-31T01:03:21;17.80;97.20
7738;DHT22;29398;45.328;5.558;2023-05-31T01:04:24;17.80;97.20
7738;DHT22;29398;45.328;5.558;2023-05-31T01:05:26;17.80;97.10
7738;DHT22;29398;45.328;5.558;2023-05-31T01:06:28;17.80;97.40
7738;DHT22;29398;45.328;5.558;2023-05-31T01:07:32;17.90;98.60
7738;DHT22;29398;45.328;5.558;2023-05-31T01:08:34;17.80;97.50
7738;DHT22;29398;45.328;5.558;2023-05-31T01:09:37;17.80;97.50
7738;DHT22;29398;45.328;5.558;2023-05-31T01:10:43;17.70;97.10
7738;DHT22;29398;45.328;5.558;2023-05-31T01:11:57;17.80;97.40
7738;DHT22;29398;45.328;5.558;2023-05-31T01:13:09;17.80;97.40
7738;DHT22;29398;45.328;5.558;2023-05-31T01:14:20;17.80;97.50
7738;DHT22;29398;45.328;5.558;2023-05-31T01:15:24;17.70;97.40
7738;DHT22;29398;45.328;5.558;2023-05-31T01:16:31;17.70;97.60
7738;DHT22;29398;45.328;5.558;2023-05-31T01:17:42;17.70;97.80
7738;DHT22;29398;45.328;5.558;2023-05-31T01:18:54;17.60;97.90
7738;DHT22;29398;45.328;5.558;2023-05-31T01:19:59;17.60;98.10
7738;DHT22;29398;45.328;5.558;2023-05-31T01:21:01;17.50;98.20
7738;DHT22;29398;45.328;5.558;2023-05-31T01:22:13;17.60;98.20
7738;DHT22;29398;45.328;5.558;2023-05-31T01:23:38;17.50;98.40
7738;DHT22;29398;45.328;5.558;2023-05-31T01:24:52;17.50;98.50
7738;DHT22;29398;45.328;5.558;2023-05-31T01:27:10;17.40;98.60
7738;DHT22;29398;45.328;5.558;2023-05-31T01:28:12;17.30;99.30
7738;DHT22;29398;45.328;5.558;2023-05-31T01:29:18;17.30;99.10
7738;DHT22;29398;45.328;5.558;2023-05-31T01:30:22;17.30;99.20
7738;DHT22;29398;45.328;5.558;2023-05-31T01:31:24;17.30;99.20
7738;DHT22;29398;45.328;5.558;2023-05-31T01:32:26;17.30;99.40
7738;DHT22;29398;45.328;5.558;2023-05-31T01:33:29;17.30;99.40
7738;DHT22;29398;45.328;5.558;2023-05-31T01:34:31;17.20;99.40
7738;DHT22;29398;45.328;5.558;2023-05-31T01:35:33;17.20;99.50
7738;DHT22;29398;45.328;5.558;2023-05-31T01:36:34;17.20;99.60
7738;DHT22;29398;45.328;5.558;2023-05-31T01:37:37;17.20;99.80
7738;DHT22;29398;45.328;5.558;2023-05-31T01:38:39;17.20;99.80
7738;DHT22;29398;45.328;5.558;2023-05-31T01:39:41;17.20;99.90
7738;DHT22;29398;45.328;5.558;2023-05-31T01:40:44;17.20;99.90
7738;DHT22;29398;45.328;5.558;2023-05-31T01:41:47;17.20;99.90
7738;DHT22;29398;45.328;5.558;2023-05-31T01:42:50;17.20;99.90
7738;DHT22;29398;45.328;5.558;2023-05-31T01:43:54;17.20;99.90
7738;DHT22;29398;45.328;5.558;2023-05-31T01:44:56;17.20;99.90
7738;DHT22;29398;45.328;5.558;2023-05-31T01:45:58;17.20;99.90
7738;DHT22;29398;45.328;5.558;2023-05-31T01:47:01;17.30;99.90
7738;DHT22;29398;45.328;5.558;2023-05-31T01:48:08;17.20;99.90
7738;DHT22;29398;45.328;5.558;2023-05-31T01:49:10;17.30;99.90
7738;DHT22;29398;45.328;5.558;2023-05-31T01:50:13;17.20;99.90
7738;DHT22;29398;45.328;5.558;2023-05-31T01:51:15;17.20;99.90
7738;DHT22;29398;45.328;5.558;2023-05-31T01:52:17;17.20;99.90
7738;DHT22;29398;45.328;5.558;2023-05-31T01:53:20;17.20;99.90
7738;DHT22;29398;45.328;5.558;2023-05-31T01:54:22;17.20;99.90
7738;DHT22;29398;45.328;5.558;2023-05-31T01:55:24;17.20;99.90
7738;DHT22;29398;45.328;5.558;2023-05-31T01:56:27;17.30;99.90
7738;DHT22;29398;45.328;5.558;2023-05-31T01:57:30;17.20;99.90
7738;DHT22;29398;45.328;5.558;2023-05-31T01:58:35;17.20;99.90
7738;DHT22;29398;45.328;5.558;2023-05-31T01:59:38;17.20;99.90
7738;DHT22;29398;45.328;5.558;2023-05-31T02:00:43;17.20;99.90
7738;DHT22;29398;45.328;5.558;2023-05-31T02:01:44;17.20;99.90
7738;DHT22;29398;45.328;5.558;2023-05-31T02:02:47;17.10;99.90
7738;DHT22;29398;45.328;5.558;2023-05-31T02:03:49;17.10;99.90
7738;DHT22;29398;45.328;5.558;2023-05-31T02:05:03;17.10;99.90
7738;DHT22;29398;45.328;5.558;2023-05-31T02:06:05;17.10;99.90
7738;DHT22;29398;45.328;5.558;2023-05-31T02:07:07;17.10;99.90
7738;DHT22;29398;45.328;5.558;2023-05-31T02:08:09;17.00;99.90
7738;DHT22;29398;45.328;5.558;2023-05-31T02:09:11;17.00;99.90
7738;DHT22;29398;45.328;5.558;2023-05-31T02:10:13;17.00;99.90
7738;DHT22;29398;45.328;5.558;2023-05-31T02:11:15;17.00;99.90
7738;DHT22;29398;45.328;5.558;2023-05-31T02:12:17;17.00;99.90
7738;DHT22;29398;45.328;5.558;2023-05-31T02:13:23;17.00;99.90
7738;DHT22;29398;45.328;5.558;2023-05-31T02:14:28;17.00;99.90
7738;DHT22;29398;45.328;5.558;2023-05-31T02:15:30;17.00;99.90
7738;DHT22;29398;45.328;5.558;2023-05-31T02:16:31;17.00;99.90
7738;DHT22;29398;45.328;5.558;2023-05-31T02:17:34;17.00;99.90
7738;DHT22;29398;45.328;5.558;2023-05-31T02:18:35;17.00;99.90
7738;DHT22;29398;45.328;5.558;2023-05-31T02:19:37;17.10;99.90
7738;DHT22;29398;45.328;5.558;2023-05-31T02:20:41;17.00;99.90
7738;DHT22;29398;45.328;5.558;2023-05-31T02:21:51;17.00;99.90
7738;DHT22;29398;45.328;5.558;2023-05-31T02:22:54;17.00;99.90
7738;DHT22;29398;45.328;5.558;2023-05-31T02:23:55;17.00;99.90
7738;DHT22;29398;45.328;5.558;2023-05-31T02:24:57;17.00;99.90
7738;DHT22;29398;45.328;5.558;2023-05-31T02:25:58;16.90;99.90
7738;DHT22;29398;45.328;5.558;2023-05-31T02:27:00;16.90;99.90
7738;DHT22;29398;45.328;5.558;2023-05-31T02:28:01;16.90;99.90
7738;DHT22;29398;45.328;5.558;2023-05-31T02:29:03;16.90;99.90
7738;DHT22;29398;45.328;5.558;2023-05-31T02:30:07;16.80;99.90
7738;DHT22;29398;45.328;5.558;2023-05-31T02:31:10;16.80;99.90
7738;DHT22;29398;45.328;5.558;2023-05-31T02:32:13;16.80;99.90
7738;DHT22;29398;45.328;5.558;2023-05-31T02:33:14;16.80;99.90
7738;DHT22;29398;45.328;5.558;2023-05-31T02:35:19;16.60;99.90
7738;DHT22;29398;45.328;5.558;2023-05-31T02:36:23;16.70;99.90
7738;DHT22;29398;45.328;5.558;2023-05-31T02:37:29;16.70;99.90
7738;DHT22;29398;45.328;5.558;2023-05-31T02:38:31;16.70;99.90
7738;DHT22;29398;45.328;5.558;2023-05-31T02:39:32;16.70;99.90
7738;DHT22;29398;45.328;5.558;2023-05-31T02:40:35;16.70;99.90
7738;DHT22;29398;45.328;5.558;2023-05-31T02:41:36;16.70;99.90
7738;DHT22;29398;45.328;5.558;2023-05-31T02:42:41;16.60;99.90
7738;DHT22;29398;45.328;5.558;2023-05-31T02:44:46;16.50;99.90
7738;DHT22;29398;45.328;5.558;2023-05-31T02:45:49;16.50;99.90
7738;DHT22;29398;45.328;5.558;2023-05-31T02:46:51;16.50;99.90
7738;DHT22;29398;45.328;5.558;2023-05-31T02:47:52;16.50;99.90
7738;DHT22;29398;45.328;5.558;2023-05-31T02:48:54;16.40;99.90
7738;DHT22;29398;45.328;5.558;2023-05-31T02:49:56;16.40;99.90
7738;DHT22;29398;45.328;5.558;2023-05-31T02:50:59;16.40;99.90
7738;DHT22;29398;45.328;5.558;2023-05-31T02:52:21;16.30;99.90
7738;DHT22;29398;45.328;5.558;2023-05-31T02:53:47;16.30;99.90
7738;DHT22;29398;45.328;5.558;2023-05-31T02:54:53;16.30;99.90
7738;DHT22;29398;45.328;5.558;2023-05-31T02:55:59;16.30;99.90
7738;DHT22;29398;45.328;5.558;2023-05-31T02:57:15;16.30;99.90
7738;DHT22;29398;45.328;5.558;2023-05-31T02:58:17;16.20;99.90
7738;DHT22;29398;45.328;5.558;2023-05-31T02:59:34;16.20;99.90
7738;DHT22;29398;45.328;5.558;2023-05-31T03:00:40;16.20;99.90
7738;DHT22;29398;45.328;5.558;2023-05-31T03:01:42;16.20;99.90
7738;DHT22;29398;45.328;5.558;2023-05-31T03:02:56;16.10;99.90
7738;DHT22;29398;45.328;5.558;2023-05-31T03:04:20;16.10;99.90
7738;DHT22;29398;45.328;5.558;2023-05-31T03:05:23;16.10;99.90
7738;DHT22;29398;45.328;5.558;2023-05-31T03:06:27;16.10;99.90
7738;DHT22;29398;45.328;5.558;2023-05-31T03:07:29;16.10;99.90
7738;DHT22;29398;45.328;5.558;2023-05-31T03:08:31;16.00;99.90
7738;DHT22;29398;45.328;5.558;2023-05-31T03:09:32;16.00;99.90
7738;DHT22;29398;45.328;5.558;2023-05-31T03:10:35;16.00;99.90
7738;DHT22;29398;45.328;5.558;2023-05-31T03:11:36;16.00;99.90
7738;DHT22;29398;45.328;5.558;2023-05-31T03:12:38;16.00;99.90
7738;DHT22;29398;45.328;5.558;2023-05-31T03:13:40;16.00;99.90
7738;DHT22;29398;45.328;5.558;2023-05-31T03:14:42;16.00;99.90
7738;DHT22;29398;45.328;5.558;2023-05-31T03:15:44;15.90;99.90
7738;DHT22;29398;45.328;5.558;2023-05-31T03:16:46;15.90;99.90
7738;DHT22;29398;45.328;5.558;2023-05-31T03:17:49;15.90;99.90
7738;DHT22;29398;45.328;5.558;2023-05-31T03:18:50;15.90;99.90
7738;DHT22;29398;45.328;5.558;2023-05-31T03:19:53;15.90;99.90
7738;DHT22;29398;45.328;5.558;2023-05-31T03:20:54;15.90;99.90
7738;DHT22;29398;45.328;5.558;2023-05-31T03:21:56;15.90;99.90
7738;DHT22;29398;45.328;5.558;2023-05-31T03:23:01;15.90;99.90
7738;DHT22;29398;45.328;5.558;2023-05-31T03:24:03;15.90;99.90
7738;DHT22;29398;45.328;5.558;2023-05-31T03:25:05;15.90;99.90
7738;DHT22;29398;45.328;5.558;2023-05-31T03:26:08;15.90;99.90
7738;DHT22;29398;45.328;5.558;2023-05-31T03:27:09;15.90;99.90
7738;DHT22;29398;45.328;5.558;2023-05-31T03:28:11;15.90;99.90
7738;DHT22;29398;45.328;5.558;2023-05-31T03:29:13;15.80;99.90
7738;DHT22;29398;45.328;5.558;2023-05-31T03:30:15;15.80;99.90
7738;DHT22;29398;45.328;5.558;2023-05-31T03:31:24;15.80;99.90
7738;DHT22;29398;45.328;5.558;2023-05-31T03:32:31;15.90;99.90
7738;DHT22;29398;45.328;5.558;2023-05-31T03:33:32;15.90;99.90
7738;DHT22;29398;45.328;5.558;2023-05-31T03:34:36;15.90;99.90
7738;DHT22;29398;45.328;5.558;2023-05-31T03:35:37;15.90;99.90
7738;DHT22;29398;45.328;5.558;2023-05-31T03:36:40;15.80;99.90
7738;DHT22;29398;45.328;5.558;2023-05-31T03:37:57;15.90;99.90
7738;DHT22;29398;45.328;5.558;2023-05-31T03:39:01;15.80;99.90
7738;DHT22;29398;45.328;5.558;2023-05-31T03:40:05;15.80;99.90
7738;DHT22;29398;45.328;5.558;2023-05-31T03:41:07;15.80;99.90
7738;DHT22;29398;45.328;5.558;2023-05-31T03:42:10;15.80;99.90
7738;DHT22;29398;45.328;5.558;2023-05-31T03:43:12;15.70;99.90
7738;DHT22;29398;45.328;5.558;2023-05-31T03:44:13;15.70;99.90
7738;DHT22;29398;45.328;5.558;2023-05-31T03:45:15;15.80;99.90
7738;DHT22;29398;45.328;5.558;2023-05-31T03:46:18;15.70;99.90
7738;DHT22;29398;45.328;5.558;2023-05-31T03:47:19;15.70;99.90
7738;DHT22;29398;45.328;5.558;2023-05-31T03:48:22;15.70;99.90
7738;DHT22;29398;45.328;5.558;2023-05-31T03:49:23;15.70;99.90
7738;DHT22;29398;45.328;5.558;2023-05-31T03:50:27;15.70;99.90
7738;DHT22;29398;45.328;5.558;2023-05-31T03:51:28;15.70;99.90
7738;DHT22;29398;45.328;5.558;2023-05-31T03:52:30;15.70;99.90
7738;DHT22;29398;45.328;5.558;2023-05-31T03:53:32;15.70;99.90
7738;DHT22;29398;45.328;5.558;2023-05-31T03:54:35;15.70;99.90
7738;DHT22;29398;45.328;5.558;2023-05-31T03:55:38;15.70;99.90
7738;DHT22;29398;45.328;5.558;2023-05-31T03:56:39;15.70;99.90
7738;DHT22;29398;45.328;5.558;2023-05-31T03:57:41;15.70;99.90
7738;DHT22;29398;45.328;5.558;2023-05-31T03:58:43;15.70;99.90
7738;DHT22;29398;45.328;5.558;2023-05-31T03:59:45;15.60;99.90
7738;DHT22;29398;45.328;5.558;2023-05-31T04:00:47;15.60;99.90
7738;DHT22;29398;45.328;5.558;2023-05-31T04:01:48;15.60;99.90
7738;DHT22;29398;45.328;5.558;2023-05-31T04:02:51;15.60;99.90
7738;DHT22;29398;45.328;5.558;2023-05-31T04:03:54;15.60;99.90
7738;DHT22;29398;45.328;5.558;2023-05-31T04:04:56;15.60;99.90
7738;DHT22;29398;45.328;5.558;2023-05-31T04:05:59;15.60;99.90
7738;DHT22;29398;45.328;5.558;2023-05-31T04:07:00;15.60;99.90
7738;DHT22;29398;45.328;5.558;2023-05-31T04:08:02;15.60;99.90
7738;DHT22;29398;45.328;5.558;2023-05-31T04:09:05;15.60;99.90
7738;DHT22;29398;45.328;5.558;2023-05-31T04:10:08;15.60;99.90
7738;DHT22;29398;45.328;5.558;2023-05-31T04:11:09;15.60;99.90
7738;DHT22;29398;45.328;5.558;2023-05-31T04:12:12;15.60;99.90
7738;DHT22;29398;45.328;5.558;2023-05-31T04:13:13;15.60;99.90
7738;DHT22;29398;45.328;5.558;2023-05-31T04:14:15;15.60;99.90
7738;DHT22;29398;45.328;5.558;2023-05-31T04:15:17;15.60;99.90
7738;DHT22;29398;45.328;5.558;2023-05-31T04:16:19;15.60;99.90
7738;DHT22;29398;45.328;5.558;2023-05-31T04:17:20;15.60;99.90
7738;DHT22;29398;45.328;5.558;2023-05-31T04:18:23;15.60;99.90
7738;DHT22;29398;45.328;5.558;2023-05-31T04:19:26;15.60;99.90
7738;DHT22;29398;45.328;5.558;2023-05-31T04:20:28;15.60;99.90
7738;DHT22;29398;45.328;5.558;2023-05-31T04:21:30;15.60;99.90
7738;DHT22;29398;45.328;5.558;2023-05-31T04:22:34;15.60;99.90
7738;DHT22;29398;45.328;5.558;2023-05-31T04:23:36;15.60;99.90
7738;DHT22;29398;45.328;5.558;2023-05-31T04:24:38;15.60;99.90
7738;DHT22;29398;45.328;5.558;2023-05-31T04:25:39;15.60;99.90
7738;DHT22;29398;45.328;5.558;2023-05-31T04:26:42;15.60;99.90
7738;DHT22;29398;45.328;5.558;2023-05-31T04:27:46;15.60;99.90
7738;DHT22;29398;45.328;5.558;2023-05-31T04:28:50;15.60;99.90
7738;DHT22;29398;45.328;5.558;2023-05-31T04:29:56;15.60;99.90
7738;DHT22;29398;45.328;5.558;2023-05-31T04:30:58;15.60;99.90
7738;DHT22;29398;45.328;5.558;2023-05-31T04:32:03;15.60;99.90
7738;DHT22;29398;45.328;5.558;2023-05-31T04:33:05;15.50;99.90
7738;DHT22;29398;45.328;5.558;2023-05-31T04:34:08;15.60;99.90
7738;DHT22;29398;45.328;5.558;2023-05-31T04:35:12;15.50;99.90
7738;DHT22;29398;45.328;5.558;2023-05-31T04:36:17;15.60;99.90
7738;DHT22;29398;45.328;5.558;2023-05-31T04:37:19;15.50;99.90
7738;DHT22;29398;45.328;5.558;2023-05-31T04:38:21;15.50;99.90
7738;DHT22;29398;45.328;5.558;2023-05-31T04:39:28;15.60;99.90
7738;DHT22;29398;45.328;5.558;2023-05-31T04:40:32;15.50;99.90
7738;DHT22;29398;45.328;5.558;2023-05-31T04:41:35;15.50;99.90
7738;DHT22;29398;45.328;5.558;2023-05-31T04:42:36;15.50;99.90
7738;DHT22;29398;45.328;5.558;2023-05-31T04:43:41;15.50;99.90
7738;DHT22;29398;45.328;5.558;2023-05-31T04:44:43;15.30;99.90
7738;DHT22;29398;45.328;5.558;2023-05-31T04:45:46;15.50;99.90
7738;DHT22;29398;45.328;5.558;2023-05-31T04:46:48;15.50;99.90
7738;DHT22;29398;45.328;5.558;2023-05-31T04:47:50;15.50;99.90
7738;DHT22;29398;45.328;5.558;2023-05-31T04:48:52;15.50;99.90
7738;DHT22;29398;45.328;5.558;2023-05-31T04:49:56;15.50;99.90
7738;DHT22;29398;45.328;5.558;2023-05-31T04:51:01;15.50;99.90
7738;DHT22;29398;45.328;5.558;2023-05-31T04:52:05;15.50;99.90
7738;DHT22;29398;45.328;5.558;2023-05-31T04:53:07;15.60;99.90
7738;DHT22;29398;45.328;5.558;2023-05-31T04:54:09;15.60;99.90
7738;DHT22;29398;45.328;5.558;2023-05-31T04:55:10;15.60;99.90
7738;DHT22;29398;45.328;5.558;2023-05-31T04:56:13;15.60;99.90
7738;DHT22;29398;45.328;5.558;2023-05-31T04:57:14;15.60;99.90
7738;DHT22;29398;45.328;5.558;2023-05-31T04:58:17;15.60;99.90
7738;DHT22;29398;45.328;5.558;2023-05-31T04:59:20;15.60;99.90
7738;DHT22;29398;45.328;5.558;2023-05-31T05:00:23;15.60;99.90
7738;DHT22;29398;45.328;5.558;2023-05-31T05:01:33;15.60;99.90
7738;DHT22;29398;45.328;5.558;2023-05-31T05:02:43;15.60;99.90
7738;DHT22;29398;45.328;5.558;2023-05-31T05:03:44;15.60;99.90
7738;DHT22;29398;45.328;5.558;2023-05-31T05:04:47;15.60;99.90
7738;DHT22;29398;45.328;5.558;2023-05-31T05:05:51;15.60;99.90
7738;DHT22;29398;45.328;5.558;2023-05-31T05:06:55;15.60;99.90
7738;DHT22;29398;45.328;5.558;2023-05-31T05:07:56;15.60;99.90
7738;DHT22;29398;45.328;5.558;2023-05-31T05:08:59;15.60;99.90
7738;DHT22;29398;45.328;5.558;2023-05-31T05:10:03;15.70;99.90
7738;DHT22;29398;45.328;5.558;2023-05-31T05:11:06;15.70;99.90
7738;DHT22;29398;45.328;5.558;2023-05-31T05:12:08;15.70;99.90
7738;DHT22;29398;45.328;5.558;2023-05-31T05:13:17;15.70;99.90
7738;DHT22;29398;45.328;5.558;2023-05-31T05:14:20;15.70;99.90
7738;DHT22;29398;45.328;5.558;2023-05-31T05:17:28;15.70;99.90
7738;DHT22;29398;45.328;5.558;2023-05-31T05:18:30;15.80;99.90
7738;DHT22;29398;45.328;5.558;2023-05-31T05:19:33;15.70;99.90
7738;DHT22;29398;45.328;5.558;2023-05-31T05:20:34;15.70;99.90
7738;DHT22;29398;45.328;5.558;2023-05-31T05:21:36;15.70;99.90
7738;DHT22;29398;45.328;5.558;2023-05-31T05:22:40;15.70;99.90
7738;DHT22;29398;45.328;5.558;2023-05-31T05:23:43;15.80;99.90
7738;DHT22;29398;45.328;5.558;2023-05-31T05:24:45;15.80;99.90
7738;DHT22;29398;45.328;5.558;2023-05-31T05:25:48;15.80;99.90
7738;DHT22;29398;45.328;5.558;2023-05-31T05:26:49;15.80;99.90
7738;DHT22;29398;45.328;5.558;2023-05-31T05:27:51;15.90;99.90
7738;DHT22;29398;45.328;5.558;2023-05-31T05:28:53;16.00;99.90
7738;DHT22;29398;45.328;5.558;2023-05-31T05:29:55;15.90;99.90
7738;DHT22;29398;45.328;5.558;2023-05-31T05:30:56;15.90;99.90
7738;DHT22;29398;45.328;5.558;2023-05-31T05:32:00;15.90;99.90
7738;DHT22;29398;45.328;5.558;2023-05-31T05:33:02;16.00;99.90
7738;DHT22;29398;45.328;5.558;2023-05-31T05:34:05;16.00;99.90
7738;DHT22;29398;45.328;5.558;2023-05-31T05:35:08;16.10;99.90
7738;DHT22;29398;45.328;5.558;2023-05-31T05:36:09;16.10;99.90
7738;DHT22;29398;45.328;5.558;2023-05-31T05:37:18;16.10;99.90
7738;DHT22;29398;45.328;5.558;2023-05-31T05:38:21;16.10;99.90
7738;DHT22;29398;45.328;5.558;2023-05-31T05:39:23;16.20;99.90
7738;DHT22;29398;45.328;5.558;2023-05-31T05:40:25;16.20;99.90
7738;DHT22;29398;45.328;5.558;2023-05-31T05:41:26;16.20;99.90
7738;DHT22;29398;45.328;5.558;2023-05-31T05:42:29;16.20;99.90
7738;DHT22;29398;45.328;5.558;2023-05-31T05:43:32;16.30;99.90
7738;DHT22;29398;45.328;5.558;2023-05-31T05:44:45;16.30;99.90
7738;DHT22;29398;45.328;5.558;2023-05-31T05:45:46;16.30;99.90
7738;DHT22;29398;45.328;5.558;2023-05-31T05:46:49;16.30;99.90
7738;DHT22;29398;45.328;5.558;2023-05-31T05:47:50;16.40;99.90
7738;DHT22;29398;45.328;5.558;2023-05-31T05:48:56;16.40;99.90
7738;DHT22;29398;45.328;5.558;2023-05-31T05:49:58;16.40;99.90
7738;DHT22;29398;45.328;5.558;2023-05-31T05:51:00;16.50;99.90
7738;DHT22;29398;45.328;5.558;2023-05-31T05:52:04;16.50;99.90
7738;DHT22;29398;45.328;5.558;2023-05-31T05:53:06;16.60;99.90
7738;DHT22;29398;45.328;5.558;2023-05-31T05:54:08;16.60;99.90
7738;DHT22;29398;45.328;5.558;2023-05-31T05:55:12;16.60;99.90
7738;DHT22;29398;45.328;5.558;2023-05-31T05:56:15;16.70;99.90
7738;DHT22;29398;45.328;5.558;2023-05-31T05:57:26;16.70;99.90
7738;DHT22;29398;45.328;5.558;2023-05-31T05:58:36;16.70;99.90
7738;DHT22;29398;45.328;5.558;2023-05-31T05:59:38;16.80;99.90
7738;DHT22;29398;45.328;5.558;2023-05-31T06:01:00;16.80;99.90
7738;DHT22;29398;45.328;5.558;2023-05-31T06:02:04;16.90;99.90
7738;DHT22;29398;45.328;5.558;2023-05-31T06:03:06;16.90;99.90
7738;DHT22;29398;45.328;5.558;2023-05-31T06:04:09;16.90;99.90
7738;DHT22;29398;45.328;5.558;2023-05-31T06:05:11;16.90;99.90
7738;DHT22;29398;45.328;5.558;2023-05-31T06:06:14;17.00;99.90
7738;DHT22;29398;45.328;5.558;2023-05-31T06:07:16;17.00;99.90
7738;DHT22;29398;45.328;5.558;2023-05-31T06:08:18;17.00;99.90
7738;DHT22;29398;45.328;5.558;2023-05-31T06:09:20;17.10;99.90
7738;DHT22;29398;45.328;5.558;2023-05-31T06:10:23;17.10;99.90
7738;DHT22;29398;45.328;5.558;2023-05-31T06:11:26;17.10;99.90
7738;DHT22;29398;45.328;5.558;2023-05-31T06:12:27;17.20;99.90
7738;DHT22;29398;45.328;5.558;2023-05-31T06:13:30;17.20;99.90
7738;DHT22;29398;45.328;5.558;2023-05-31T06:14:34;17.20;99.90
7738;DHT22;29398;45.328;5.558;2023-05-31T06:15:37;17.30;99.90
7738;DHT22;29398;45.328;5.558;2023-05-31T06:16:39;17.40;99.90
7738;DHT22;29398;45.328;5.558;2023-05-31T06:17:40;17.40;99.90
7738;DHT22;29398;45.328;5.558;2023-05-31T06:18:43;17.50;99.90
7738;DHT22;29398;45.328;5.558;2023-05-31T06:19:44;17.50;99.90
7738;DHT22;29398;45.328;5.558;2023-05-31T06:20:47;17.50;99.90
7738;DHT22;29398;45.328;5.558;2023-05-31T06:21:48;17.60;99.90
7738;DHT22;29398;45.328;5.558;2023-05-31T06:22:51;17.70;99.90
7738;DHT22;29398;45.328;5.558;2023-05-31T06:23:52;17.70;99.90
7738;DHT22;29398;45.328;5.558;2023-05-31T06:24:57;17.80;99.90
7738;DHT22;29398;45.328;5.558;2023-05-31T06:25:58;17.80;99.90
7738;DHT22;29398;45.328;5.558;2023-05-31T06:27:02;17.90;99.90
7738;DHT22;29398;45.328;5.558;2023-05-31T06:28:06;17.90;99.90
7738;DHT22;29398;45.328;5.558;2023-05-31T06:29:08;18.00;99.90
7738;DHT22;29398;45.328;5.558;2023-05-31T06:30:37;18.00;99.90
7738;DHT22;29398;45.328;5.558;2023-05-31T06:31:39;17.40;99.90
7738;DHT22;29398;45.328;5.558;2023-05-31T06:32:41;18.20;99.90
7738;DHT22;29398;45.328;5.558;2023-05-31T06:33:43;18.20;99.90
7738;DHT22;29398;45.328;5.558;2023-05-31T06:34:45;18.20;99.90
7738;DHT22;29398;45.328;5.558;2023-05-31T06:35:47;18.20;99.90
7738;DHT22;29398;45.328;5.558;2023-05-31T06:36:49;18.30;99.90
7738;DHT22;29398;45.328;5.558;2023-05-31T06:37:50;18.30;99.90
7738;DHT22;29398;45.328;5.558;2023-05-31T06:38:53;18.30;99.90
7738;DHT22;29398;45.328;5.558;2023-05-31T06:39:54;18.40;99.90
7738;DHT22;29398;45.328;5.558;2023-05-31T06:40:58;18.40;99.90
7738;DHT22;29398;45.328;5.558;2023-05-31T06:42:00;18.40;99.90
7738;DHT22;29398;45.328;5.558;2023-05-31T06:43:19;18.50;99.90
7738;DHT22;29398;45.328;5.558;2023-05-31T06:44:40;18.50;99.90
7738;DHT22;29398;45.328;5.558;2023-05-31T06:45:49;18.60;99.90
7738;DHT22;29398;45.328;5.558;2023-05-31T06:46:51;18.60;99.90
7738;DHT22;29398;45.328;5.558;2023-05-31T06:48:11;18.60;99.90
7738;DHT22;29398;45.328;5.558;2023-05-31T06:49:32;18.70;99.90
7738;DHT22;29398;45.328;5.558;2023-05-31T06:51:09;18.70;99.90
7738;DHT22;29398;45.328;5.558;2023-05-31T06:52:34;18.70;99.90
7738;DHT22;29398;45.328;5.558;2023-05-31T06:53:56;18.80;99.90
7738;DHT22;29398;45.328;5.558;2023-05-31T06:55:00;18.90;99.90